Time;durP1;ratioP1;P1;durP2;ratioP2;P2;SDS_P1;SDS_P2;PMS_P1;PMS_P2;Temp;Humidity;BMP_temperature;BMP_pressure;BME280_temperature;BME280_humidity;BME280_pressure;Samples;Min_cycle;Max_cycle;Signal;HPM_P1;HPM_P2
2023/10/05 00:02:29;;;;;;;5.38;2.45;;;;;;;15.49;41.59;101986.38;5027591;28;20053;-85
2023/10/05 00:05:21;;;;;;;4.90;2.47;;;;;;;15.46;41.53;101981.13;5034436;28;20033;-85
2023/10/05 00:08:10;;;;;;;5.95;2.97;;;;;;;15.45;41.87;101985.75;5015198;28;20080;-85
2023/10/05 00:10:40;;;;;;;7.10;2.63;;;;;;;15.46;41.93;101986.63;5029785;28;20049;-85
2023/10/05 00:13:09;;;;;;;4.90;2.53;;;;;;;15.42;41.62;101986.03;5028176;28;20122;-85
2023/10/05 00:15:37;;;;;;;5.13;2.60;;;;;;;15.42;41.57;101980.50;5025733;28;20510;-84
2023/10/05 00:18:06;;;;;;;5.20;2.60;;;;;;;15.42;41.92;101986.03;5028971;28;20491;-85
2023/10/05 00:20:38;;;;;;;6.18;2.83;;;;;;;15.39;41.94;101989.06;5031306;28;20049;-85
2023/10/05 00:23:08;;;;;;;5.83;2.60;;;;;;;15.39;41.81;101996.47;5032117;28;20417;-84
2023/10/05 00:25:39;;;;;;;5.65;2.80;;;;;;;15.40;42.01;101984.44;5031672;28;20409;-84
2023/10/05 00:28:10;;;;;;;6.32;2.65;;;;;;;15.40;41.84;101984.44;5037900;28;20586;-85
2023/10/05 00:30:40;;;;;;;7.53;3.38;;;;;;;15.39;42.27;101989.06;5038015;28;20048;-84
2023/10/05 00:33:10;;;;;;;7.95;3.47;;;;;;;15.39;42.46;101991.84;5039048;28;20120;-85
2023/10/05 00:35:38;;;;;;;6.45;3.50;;;;;;;15.39;42.11;101985.44;5037682;28;20111;-84
2023/10/05 00:38:12;;;;;;;5.47;2.90;;;;;;;15.39;42.31;101988.19;5035653;28;20042;-85
2023/10/05 00:40:56;;;;;;;5.90;2.72;;;;;;;15.38;41.97;101986.44;5031172;28;20154;-85
2023/10/05 00:43:28;;;;;;;8.80;3.42;;;;;;;15.40;41.95;101978.91;5030182;28;20076;-86
2023/10/05 00:45:58;;;;;;;7.13;3.40;;;;;;;15.36;42.41;101972.78;5040228;28;20068;-84
2023/10/05 00:48:34;;;;;;;6.25;2.78;;;;;;;15.38;42.25;101972.66;5031068;28;20041;-86
2023/10/05 00:51:08;;;;;;;6.45;2.58;;;;;;;15.38;42.58;101986.44;5033630;28;20041;-84
2023/10/05 00:53:41;;;;;;;6.00;2.70;;;;;;;15.38;42.47;101990.09;5034312;28;20056;-83
2023/10/05 00:56:12;;;;;;;6.65;2.88;;;;;;;15.37;42.16;101990.22;5030567;28;20068;-84
2023/10/05 00:58:44;;;;;;;5.63;2.72;;;;;;;15.40;42.50;101982.56;5030026;28;20051;-85
2023/10/05 01:04:53;;;;;;;5.47;2.25;;;;;;;15.34;42.52;101998.78;5018591;28;20041;-82
2023/10/05 01:07:28;;;;;;;;;;;;;;;15.08;42.66;101988.16;5027638;28;20129;-84
2023/10/05 01:12:43;;;;;;;6.47;2.17;;;;;;;15.34;42.07;101991.34;5031093;28;20120;-84
2023/10/05 01:15:19;;;;;;;6.05;2.60;;;;;;;15.36;42.59;101981.06;5029260;28;20091;-83
2023/10/05 01:17:50;;;;;;;6.68;2.50;;;;;;;15.34;42.50;101988.59;5029483;28;20045;-86
2023/10/05 01:20:26;;;;;;;4.95;1.77;;;;;;;15.33;42.22;101981.34;5033228;28;20049;-82
2023/10/05 01:22:57;;;;;;;4.95;2.38;;;;;;;15.33;42.53;101991.50;5061045;28;20070;-82
2023/10/05 01:25:27;;;;;;;6.03;2.70;;;;;;;15.32;42.48;101993.38;5049490;28;20239;-82
2023/10/05 01:27:56;;;;;;;6.30;2.83;;;;;;;15.31;42.10;101988.00;5041159;28;20573;-85
2023/10/05 01:30:24;;;;;;;6.97;2.47;;;;;;;15.30;42.68;101992.63;5028407;28;21514;-84
2023/10/05 01:32:54;;;;;;;5.47;2.30;;;;;;;15.30;42.33;101992.63;5042722;28;20045;-83
2023/10/05 01:35:23;;;;;;;5.78;2.30;;;;;;;15.29;42.77;101990.88;5030330;28;20068;-85
2023/10/05 01:37:53;;;;;;;6.55;2.55;;;;;;;15.29;42.33;101993.63;5043926;28;20061;-85
2023/10/05 01:40:24;;;;;;;5.88;2.42;;;;;;;15.30;42.70;101991.75;5028673;28;20134;-85
2023/10/05 01:42:54;;;;;;;6.05;2.58;;;;;;;15.31;42.53;101999.91;5026873;28;20049;-84
2023/10/05 01:45:28;;;;;;;7.43;2.40;;;;;;;15.30;42.64;101995.38;5026789;28;20057;-84
2023/10/05 01:48:01;;;;;;;7.28;2.40;;;;;;;15.30;42.36;101992.63;5026745;28;20137;-85
2023/10/05 01:50:29;;;;;;;4.63;2.22;;;;;;;15.26;42.67;101996.66;5029450;28;20059;-85
2023/10/05 01:53:14;;;;;;;6.88;2.20;;;;;;;15.28;42.91;101988.25;5028941;28;20108;-84
2023/10/05 01:55:44;;;;;;;6.18;2.65;;;;;;;15.27;42.75;101990.13;5029581;28;20061;-83
2023/10/05 01:58:23;;;;;;;6.30;2.53;;;;;;;15.30;42.40;101994.50;5031726;28;20052;-82
2023/10/05 02:00:53;;;;;;;5.88;2.03;;;;;;;15.27;42.82;101984.63;5026492;28;20052;-84
2023/10/05 02:03:23;;;;;;;5.55;2.42;;;;;;;15.26;42.52;101980.09;5026590;28;20136;-84
2023/10/05 02:05:53;;;;;;;5.38;2.10;;;;;;;15.26;42.67;101984.78;5043345;28;20104;-84
2023/10/05 02:11:52;;;;;;;5.57;2.10;;;;;;;15.21;42.60;101987.94;4999068;28;20103;-85
2023/10/05 02:14:25;;;;;;;4.90;1.98;;;;;;;15.26;42.29;101984.78;5022570;28;20049;-86
2023/10/05 02:16:57;;;;;;;3.65;1.77;;;;;;;15.21;42.42;101974.16;5023954;28;20425;-83
2023/10/05 02:19:26;;;;;;;5.28;2.05;;;;;;;15.20;42.61;101966.88;5027897;28;20053;-85
2023/10/05 02:21:58;;;;;;;5.40;2.15;;;;;;;15.19;42.94;101967.00;5026405;28;20045;-84
2023/10/05 02:24:40;;;;;;;4.72;1.92;;;;;;;15.19;42.56;101965.13;5029059;28;20052;-85
2023/10/05 02:27:13;;;;;;;4.13;1.85;;;;;;;15.18;42.45;101971.66;5026522;28;20145;-86
2023/10/05 02:29:44;;;;;;;5.40;2.35;;;;;;;15.18;42.87;101970.81;5036620;28;21148;-86
2023/10/05 02:32:15;;;;;;;5.38;2.25;;;;;;;15.19;42.79;101969.78;5025112;28;20049;-86
2023/10/05 02:34:44;;;;;;;6.32;2.33;;;;;;;15.17;42.59;101971.81;5024968;28;20061;-85
2023/10/05 02:37:19;;;;;;;4.43;1.75;;;;;;;15.16;42.90;101967.31;5023936;28;20113;-83
2023/10/05 02:39:49;;;;;;;4.75;1.80;;;;;;;15.16;43.13;101964.53;5024519;28;20037;-84
2023/10/05 02:42:21;;;;;;;3.72;2.03;;;;;;;15.16;42.60;101964.53;5027132;28;20061;-83
2023/10/05 02:44:53;;;;;;;4.10;1.70;;;;;;;15.14;42.77;101957.28;5024238;28;20095;-86
2023/10/05 02:47:23;;;;;;;3.88;1.85;;;;;;;15.13;42.42;101957.41;5026694;28;20739;-85
2023/10/05 02:49:52;;;;;;;5.95;1.95;;;;;;;15.13;42.48;101958.28;5027779;28;20506;-84
2023/10/05 02:52:20;;;;;;;4.18;1.70;;;;;;;15.13;42.75;101946.38;5027709;28;20078;-85
2023/10/05 02:54:49;;;;;;;6.22;2.05;;;;;;;15.13;42.75;101944.50;5026484;28;20053;-86
2023/10/05 02:57:19;;;;;;;5.68;2.10;;;;;;;15.12;42.79;101951.03;5046345;28;20053;-83
2023/10/05 02:59:50;;;;;;;3.67;1.60;;;;;;;15.09;43.20;101943.00;5031690;28;20796;-85
2023/10/05 03:02:19;;;;;;;4.93;1.98;;;;;;;15.11;43.03;101948.41;5032312;28;20054;-84
2023/10/05 03:04:48;;;;;;;3.65;1.90;;;;;;;15.10;42.85;101949.41;5052304;28;20053;-84
2023/10/05 03:07:25;;;;;;;4.00;1.48;;;;;;;15.09;43.16;101945.78;5068111;28;20057;-83
2023/10/05 03:09:59;;;;;;;5.05;1.75;;;;;;;15.08;42.72;101943.19;5065887;28;20072;-86
2023/10/05 03:12:32;;;;;;;6.47;1.98;;;;;;;15.09;42.92;101955.97;5035504;28;20053;-86
2023/10/05 03:15:07;;;;;;;3.67;1.60;;;;;;;15.06;43.31;101947.94;5028322;28;20046;-85
2023/10/05 03:17:39;;;;;;;4.70;2.03;;;;;;;15.08;43.11;101949.56;5030622;28;20056;-86
2023/10/05 03:20:09;;;;;;;4.25;1.60;;;;;;;15.07;42.74;101953.34;5048499;28;20075;-86
2023/10/05 03:22:37;;;;;;;3.25;1.55;;;;;;;15.06;42.90;101939.69;5030901;28;20140;-83
2023/10/05 03:25:06;;;;;;;4.88;1.50;;;;;;;15.05;42.89;101946.19;5050473;28;20095;-85
2023/10/05 03:27:36;;;;;;;4.57;1.80;;;;;;;15.06;43.30;101945.19;5037730;28;20091;-85
2023/10/05 03:30:23;;;;;;;4.32;1.42;;;;;;;15.09;43.24;101939.41;5037593;28;20479;-83
2023/10/05 03:32:53;;;;;;;4.75;2.03;;;;;;;15.05;43.08;101935.16;5041775;28;20160;-83
2023/10/05 03:35:24;;;;;;;4.47;1.58;;;;;;;15.03;42.85;101940.81;5059288;28;20056;-84
2023/10/05 03:37:53;;;;;;;2.95;1.38;;;;;;;15.03;42.89;101937.19;5040672;28;20049;-84
2023/10/05 03:40:25;;;;;;;3.60;1.50;;;;;;;15.01;42.63;101940.06;5038639;28;21203;-84
2023/10/05 03:42:58;;;;;;;4.20;1.50;;;;;;;15.01;42.89;101944.75;5050109;28;20049;-86
2023/10/05 03:45:32;;;;;;;5.15;1.65;;;;;;;15.02;42.63;101940.94;5051931;28;20061;-84
2023/10/05 03:48:03;;;;;;;3.60;1.60;;;;;;;15.02;43.05;101941.81;5035784;28;20112;-85
2023/10/05 03:50:32;;;;;;;4.22;1.80;;;;;;;14.98;43.24;101945.88;5049085;28;20473;-86
2023/10/05 03:53:01;;;;;;;3.95;1.50;;;;;;;15.00;42.85;101951.25;5029714;28;20053;-85
2023/10/05 03:55:29;;;;;;;3.75;1.50;;;;;;;14.98;42.74;101953.28;5028162;28;20068;-84
2023/10/05 03:57:58;;;;;;;5.50;1.80;;;;;;;14.97;43.24;101948.78;5025953;28;20698;-84
2023/10/05 04:00:34;;;;;;;4.72;1.80;;;;;;;14.97;42.87;101957.91;5026135;28;20173;-84
2023/10/05 04:03:06;;;;;;;3.80;1.63;;;;;;;14.97;43.46;101960.66;5027885;28;20259;-85
2023/10/05 04:05:39;;;;;;;;;;;;;;;14.69;43.63;101958.59;5027385;28;20057;-85
2023/10/05 04:08:12;;;;;;;4.97;1.60;;;;;;;14.91;43.51;101958.47;5026773;28;20316;-85
2023/10/05 04:10:46;;;;;;;3.50;1.38;;;;;;;14.91;42.98;101958.47;5029098;28;20045;-85
2023/10/05 04:13:18;;;;;;;4.07;1.58;;;;;;;14.92;43.29;101949.19;5032086;28;20048;-84
2023/10/05 04:15:46;;;;;;;3.90;1.65;;;;;;;14.91;43.01;101960.34;5026495;28;20552;-84
2023/10/05 04:18:16;;;;;;;2.60;1.40;;;;;;;14.92;42.90;101956.59;5029700;28;20045;-85
2023/10/05 04:20:44;;;;;;;4.25;1.50;;;;;;;14.88;42.97;101958.72;5025122;28;20056;-85
2023/10/05 04:23:16;;;;;;;3.58;1.60;;;;;;;14.88;43.08;101949.59;5039399;28;20091;-85
2023/10/05 04:25:44;;;;;;;4.28;1.75;;;;;;;14.85;42.91;101955.38;5028270;28;20045;-85
2023/10/05 04:28:13;;;;;;;4.57;1.60;;;;;;;14.84;43.06;101957.28;5025491;28;20451;-83
2023/10/05 04:30:42;;;;;;;3.38;1.60;;;;;;;14.84;43.43;101953.63;5024614;28;20499;-84
2023/10/05 04:33:14;;;;;;;3.83;1.52;;;;;;;14.83;43.23;101947.25;5041269;28;20063;-84
2023/10/05 04:35:45;;;;;;;3.15;1.35;;;;;;;14.82;43.01;101959.28;5027945;28;20153;-86
2023/10/05 04:38:14;;;;;;;4.22;1.58;;;;;;;14.83;43.05;101951.88;5047519;28;20053;-85
2023/10/05 04:40:42;;;;;;;4.05;1.60;;;;;;;14.80;43.02;101944.75;5030882;28;20166;-84
2023/10/05 04:43:11;;;;;;;3.58;1.50;;;;;;;14.81;43.15;101953.91;5031142;28;20088;-85
2023/10/05 04:45:42;;;;;;;3.63;1.70;;;;;;;14.79;43.06;101944.88;5041707;28;20080;-83
2023/10/05 04:48:12;;;;;;;3.88;1.58;;;;;;;14.79;43.48;101950.41;5054658;28;20148;-82
2023/10/05 04:50:41;;;;;;;4.05;1.70;;;;;;;14.76;42.93;101937.78;5050474;28;20053;-83
2023/10/05 04:53:11;;;;;;;4.43;2.10;;;;;;;14.76;43.23;101941.38;5033694;28;20055;-83
2023/10/05 04:55:42;;;;;;;3.35;1.45;;;;;;;14.76;43.22;101946.06;5028198;28;20049;-84
2023/10/05 04:58:22;;;;;;;4.03;1.60;;;;;;;14.73;43.35;101940.78;5027600;28;20053;-84
2023/10/05 05:01:04;;;;;;;3.25;1.33;;;;;;;14.72;43.58;101939.03;5024696;28;20040;-85
2023/10/05 05:03:48;;;;;;;4.05;1.42;;;;;;;14.71;43.47;101945.56;5025574;28;20065;-84
2023/10/05 05:06:16;;;;;;;5.78;1.30;;;;;;;14.69;43.07;101947.56;5027077;28;20136;-83
2023/10/05 05:08:45;;;;;;;3.55;1.50;;;;;;;14.72;43.45;101947.31;5016261;28;20128;-84
2023/10/05 05:11:20;;;;;;;4.28;1.58;;;;;;;14.72;43.50;101959.22;5035571;28;20077;-83
2023/10/05 05:13:49;;;;;;;4.60;1.70;;;;;;;14.68;43.66;101945.84;5022518;28;20125;-85
2023/10/05 05:16:17;;;;;;;3.83;1.60;;;;;;;14.67;43.77;101936.72;5036525;28;20056;-84
2023/10/05 05:18:45;;;;;;;3.85;1.45;;;;;;;14.68;43.72;101943.09;5018491;28;20053;-84
2023/10/05 05:21:14;;;;;;;2.75;1.40;;;;;;;14.66;43.23;101931.31;5018355;28;20688;-84
2023/10/05 05:23:42;;;;;;;3.90;1.50;;;;;;;14.66;43.83;101934.97;5019275;28;20046;-86
2023/10/05 05:26:12;;;;;;;4.05;1.50;;;;;;;14.68;43.45;101926.56;5017717;28;20100;-83
2023/10/05 05:28:43;;;;;;;4.03;1.70;;;;;;;14.67;43.63;101931.19;5018152;28;20111;-84
2023/10/05 05:31:14;;;;;;;3.60;1.50;;;;;;;14.66;43.80;101926.69;5011530;28;20587;-83
2023/10/05 05:33:44;;;;;;;5.78;1.73;;;;;;;14.67;43.61;101933.09;5018864;28;20060;-86
2023/10/05 05:36:13;;;;;;;2.95;1.48;;;;;;;14.66;43.62;101934.97;5014896;28;20132;-83
2023/10/05 05:38:47;;;;;;;3.58;1.58;;;;;;;14.64;43.84;101928.69;5018909;28;20511;-83
2023/10/05 05:41:27;;;;;;;4.00;1.60;;;;;;;14.66;43.86;101925.81;5016930;28;20498;-85
2023/10/05 05:44:02;;;;;;;4.28;1.83;;;;;;;14.65;43.88;101932.34;5001178;28;20053;-86
2023/10/05 05:46:33;;;;;;;3.95;1.50;;;;;;;14.63;44.00;101920.56;5015407;28;20053;-84
2023/10/05 05:49:08;;;;;;;4.18;1.67;;;;;;;14.64;43.73;101922.31;5039636;28;20053;-86
2023/10/05 05:51:36;;;;;;;4.32;1.80;;;;;;;14.63;43.86;101926.94;5016212;28;20049;-87
2023/10/05 05:54:05;;;;;;;3.10;1.27;;;;;;;14.65;44.06;101932.34;5031876;28;20041;-86
2023/10/05 05:56:34;;;;;;;4.57;1.40;;;;;;;14.65;43.66;101926.81;5019827;28;20531;-86
2023/10/05 05:59:03;;;;;;;4.38;1.65;;;;;;;14.66;44.06;101934.09;5025386;28;20053;-85
2023/10/05 06:01:35;;;;;;;3.28;1.52;;;;;;;14.65;43.99;101935.97;5036214;28;20052;-86
2023/10/05 06:04:04;;;;;;;5.03;1.60;;;;;;;14.62;43.93;101944.50;5027190;28;20041;-86
2023/10/05 06:06:34;;;;;;;5.15;1.70;;;;;;;14.64;44.12;101930.59;5025035;28;20666;-86
2023/10/05 06:09:07;;;;;;;4.10;1.85;;;;;;;14.64;44.27;101942.47;5029738;28;20045;-86
2023/10/05 06:11:37;;;;;;;4.22;1.40;;;;;;;14.63;44.28;101949.00;5027568;28;20052;-87
2023/10/05 06:14:05;;;;;;;5.00;1.75;;;;;;;14.64;44.36;101955.38;5043804;28;20049;-86
2023/10/05 06:16:34;;;;;;;5.03;1.65;;;;;;;14.63;44.37;101960.00;5023405;28;20068;-86
2023/10/05 06:19:02;;;;;;;4.63;1.88;;;;;;;14.63;43.82;101970.16;5026701;28;20059;-86
2023/10/05 06:21:30;;;;;;;7.40;1.83;;;;;;;14.62;43.80;101974.78;5042300;28;20126;-87
2023/10/05 06:24:02;;;;;;;5.50;1.83;;;;;;;14.64;43.90;101989.31;5046476;28;20050;-87
2023/10/05 06:26:31;;;;;;;3.63;1.50;;;;;;;14.62;43.90;101982.19;5037546;28;20155;-86
2023/10/05 06:29:00;;;;;;;4.10;1.65;;;;;;;14.66;44.22;102002.97;5041656;28;20053;-86
2023/10/05 06:31:28;;;;;;;6.13;1.80;;;;;;;14.63;44.58;101998.59;5050950;28;20041;-84
2023/10/05 06:33:57;;;;;;;3.67;1.70;;;;;;;14.62;44.06;102001.47;5043026;28;20663;-86
2023/10/05 06:36:25;;;;;;;5.60;1.55;;;;;;;14.63;44.39;102000.47;5046551;28;20056;-86
2023/10/05 06:38:53;;;;;;;3.75;1.67;;;;;;;14.63;44.34;102001.34;5030323;28;20456;-86
2023/10/05 06:41:22;;;;;;;4.50;1.55;;;;;;;14.64;44.34;102003.09;5030572;28;20727;-87
2023/10/05 06:43:50;;;;;;;4.18;1.70;;;;;;;14.63;44.25;101995.84;5033435;28;20069;-86
2023/10/05 06:46:26;;;;;;;4.60;1.80;;;;;;;14.68;45.21;101995.44;5028660;28;20859;-87
2023/10/05 06:48:55;;;;;;;4.40;1.63;;;;;;;14.65;44.55;102001.22;5031193;28;20053;-87
2023/10/05 06:51:26;;;;;;;5.80;1.77;;;;;;;14.67;44.60;102001.97;5029156;28;20053;-85
2023/10/05 06:53:54;;;;;;;6.30;2.13;;;;;;;14.67;44.36;102001.97;5031266;28;20049;-87
2023/10/05 06:56:22;;;;;;;4.72;1.65;;;;;;;14.66;44.70;101998.34;5029295;28;20207;-86
2023/10/05 06:58:51;;;;;;;5.03;1.70;;;;;;;14.67;44.21;101994.56;5047122;28;20049;-86
2023/10/05 07:01:21;;;;;;;4.13;1.58;;;;;;;14.71;44.50;101997.91;5028256;28;20156;-87
2023/10/05 07:03:52;;;;;;;3.70;1.33;;;;;;;14.69;44.57;101994.41;5028685;28;20049;-86
2023/10/05 07:06:24;;;;;;;4.60;1.67;;;;;;;14.70;44.56;101997.03;5030712;28;20063;-86
2023/10/05 07:09:11;;;;;;;5.33;1.70;;;;;;;14.68;44.91;102007.31;5041154;28;20053;-85
2023/10/05 07:11:39;;;;;;;3.83;1.50;;;;;;;14.70;44.86;102008.06;5037961;28;20100;-87
2023/10/05 07:14:09;;;;;;;5.18;1.50;;;;;;;14.72;44.25;102000.53;5028152;28;20052;-86
2023/10/05 07:16:39;;;;;;;4.82;1.85;;;;;;;14.75;44.47;102000.28;5025328;28;20052;-87
2023/10/05 07:19:08;;;;;;;4.45;1.65;;;;;;;14.72;44.80;102011.56;5029668;28;20100;-85
2023/10/05 07:21:37;;;;;;;3.78;1.35;;;;;;;14.73;44.35;102010.56;5026636;28;20053;-87
2023/10/05 07:24:05;;;;;;;5.55;1.88;;;;;;;14.74;44.83;102016.94;5030217;28;20623;-86
2023/10/05 07:26:33;;;;;;;6.03;1.80;;;;;;;14.73;44.29;102016.06;5027084;28;20414;-85
2023/10/05 07:29:01;;;;;;;3.85;1.52;;;;;;;14.75;44.39;102022.34;5028264;28;20045;-87
2023/10/05 07:31:41;;;;;;;4.30;1.70;;;;;;;14.77;44.55;102033.19;5029796;28;20042;-86
2023/10/05 07:34:10;;;;;;;3.60;1.42;;;;;;;14.76;44.87;102034.22;5030334;28;20679;-88
2023/10/05 07:36:41;;;;;;;4.43;2.10;;;;;;;14.80;44.66;102041.22;5028334;28;20681;-86
2023/10/05 07:39:16;;;;;;;4.70;1.60;;;;;;;14.79;44.95;102036.69;5031887;28;20049;-86
2023/10/05 07:41:50;;;;;;;4.40;1.65;;;;;;;14.76;44.51;102031.47;5030019;28;20204;-87
2023/10/05 07:44:18;;;;;;;5.57;1.90;;;;;;;14.77;44.70;102041.47;5030401;28;20413;-85
2023/10/05 07:46:49;;;;;;;4.25;1.90;;;;;;;14.81;44.79;102045.72;5029732;28;20053;-86
2023/10/05 07:49:17;;;;;;;3.78;1.60;;;;;;;14.78;44.76;102043.22;5019992;28;21597;-86
2023/10/05 07:51:46;;;;;;;4.53;2.17;;;;;;;14.78;45.21;102057.00;5025523;28;20048;-87
2023/10/05 07:54:14;;;;;;;7.00;1.88;;;;;;;14.82;44.73;102068.66;5030137;28;20128;-87
2023/10/05 07:56:42;;;;;;;3.97;1.73;;;;;;;14.82;44.96;102071.41;5027259;28;20053;-88
2023/10/05 07:59:10;;;;;;;4.78;1.80;;;;;;;14.84;44.96;102073.03;5028368;28;20837;-86
2023/10/05 08:01:38;;;;;;;4.72;1.75;;;;;;;14.84;44.98;102067.50;5028614;28;20752;-86
2023/10/05 08:04:11;;;;;;;4.97;1.80;;;;;;;14.88;45.17;102073.63;5030495;28;20426;-85
2023/10/05 08:06:43;;;;;;;4.10;1.52;;;;;;;14.85;45.28;102065.63;5034043;28;20053;-86
2023/10/05 08:09:15;;;;;;;3.97;1.63;;;;;;;14.86;45.34;102075.63;5046564;28;20616;-85
2023/10/05 08:11:44;;;;;;;3.95;1.65;;;;;;;14.90;45.09;102078.00;5051175;28;20057;-83
2023/10/05 08:14:12;;;;;;;4.90;1.60;;;;;;;14.91;45.02;102076.13;5066245;28;20064;-85
2023/10/05 08:16:40;;;;;;;3.47;1.80;;;;;;;14.93;45.37;102076.88;5029753;28;20147;-85
2023/10/05 08:19:10;;;;;;;5.07;1.67;;;;;;;14.97;45.44;102078.34;5027049;28;20053;-84
2023/10/05 08:21:38;;;;;;;3.83;1.45;;;;;;;14.97;45.21;102078.34;5028533;28;20057;-86
2023/10/05 08:24:07;;;;;;;5.38;1.77;;;;;;;14.97;45.27;102073.69;5027293;28;20080;-85
2023/10/05 08:26:39;;;;;;;3.88;1.80;;;;;;;15.00;45.41;102080.84;5028542;28;20060;-87
2023/10/05 08:29:09;;;;;;;4.10;1.67;;;;;;;15.00;45.59;102083.59;5025914;28;20095;-85
2023/10/05 08:31:37;;;;;;;3.95;1.80;;;;;;;15.05;45.69;102093.19;5029150;28;20053;-85
2023/10/05 08:34:08;;;;;;;5.68;1.80;;;;;;;15.13;45.33;102087.00;5035414;28;20119;-85
2023/10/05 08:36:38;;;;;;;4.78;1.85;;;;;;;15.16;45.43;102095.03;5030056;28;20056;-85
2023/10/05 08:39:08;;;;;;;3.40;1.75;;;;;;;15.18;45.66;102083.88;5045840;28;20570;-85
2023/10/05 08:41:39;;;;;;;4.32;1.60;;;;;;;15.24;45.74;102083.31;5050411;28;20052;-86
2023/10/05 08:44:17;;;;;;;5.65;1.77;;;;;;;15.30;45.82;102089.16;5032654;28;20405;-85
2023/10/05 08:46:45;;;;;;;4.30;1.77;;;;;;;15.37;45.70;102095.91;5033391;28;20049;-85
2023/10/05 08:49:15;;;;;;;5.68;1.50;;;;;;;15.43;45.62;102092.59;5030072;28;20103;-84
2023/10/05 08:51:45;;;;;;;4.32;1.58;;;;;;;15.52;45.76;102093.66;5025786;28;20063;-85
2023/10/05 08:54:28;;;;;;;3.42;1.50;;;;;;;15.58;45.47;102097.78;5029772;28;20464;-84
2023/10/05 08:56:57;;;;;;;4.05;1.80;;;;;;;15.63;45.38;102096.34;5044948;28;20421;-84
2023/10/05 08:59:27;;;;;;;5.20;1.80;;;;;;;15.68;45.23;102095.94;5033208;28;20045;-85
2023/10/05 09:01:59;;;;;;;5.60;1.98;;;;;;;15.71;45.31;102096.53;5030498;28;20056;-85
2023/10/05 09:04:43;;;;;;;4.32;1.60;;;;;;;15.73;45.23;102090.88;5049782;28;20037;-88
2023/10/05 09:07:29;;;;;;;3.58;1.63;;;;;;;15.80;44.88;102100.34;5045821;28;20053;-86
2023/10/05 09:09:58;;;;;;;5.57;1.88;;;;;;;15.82;44.75;102104.75;5035224;28;20056;-88
2023/10/05 09:12:34;;;;;;;4.45;1.98;;;;;;;15.87;44.53;102107.06;5054771;28;20053;-88
2023/10/05 09:15:10;;;;;;;5.55;1.92;;;;;;;15.93;44.37;102103.75;5030063;28;20100;-86
2023/10/05 09:17:58;;;;;;;4.32;1.73;;;;;;;15.91;44.63;102114.06;5030374;28;20518;-86
2023/10/05 09:20:30;;;;;;;4.78;1.70;;;;;;;15.94;44.65;102110.13;5028959;28;20095;-87
2023/10/05 09:23:04;;;;;;;4.07;1.40;;;;;;;15.95;44.88;102109.13;5030720;28;20053;-87
2023/10/05 09:25:34;;;;;;;4.45;1.50;;;;;;;15.98;44.82;102119.91;5030958;28;20060;-85
2023/10/05 09:28:13;;;;;;;5.70;1.90;;;;;;;16.02;44.73;102116.72;5029424;28;20045;-86
2023/10/05 09:30:54;;;;;;;2.90;1.40;;;;;;;16.05;44.09;102116.44;5028232;28;20485;-86
2023/10/05 09:33:25;;;;;;;4.65;1.77;;;;;;;16.06;44.38;102128.38;5035987;28;20128;-85
2023/10/05 09:35:56;;;;;;;4.38;1.50;;;;;;;16.06;44.40;102126.47;5029708;28;20111;-86
2023/10/05 09:38:26;;;;;;;5.25;1.63;;;;;;;16.12;43.76;102131.44;5048818;28;20555;-85
2023/10/05 09:40:55;;;;;;;3.58;1.90;;;;;;;16.13;44.33;102132.31;5045173;28;20050;-86
2023/10/05 09:43:27;;;;;;;4.40;2.10;;;;;;;16.15;44.16;102130.28;5040767;28;20044;-86
2023/10/05 09:45:57;;;;;;;4.07;1.60;;;;;;;16.15;43.96;102131.16;5039728;28;20167;-85
2023/10/05 09:48:25;;;;;;;4.75;1.52;;;;;;;16.18;43.79;102139.19;5052296;28;20055;-84
2023/10/05 09:50:54;;;;;;;4.45;1.75;;;;;;;16.17;44.08;102137.44;5041907;28;20114;-84
2023/10/05 09:53:22;;;;;;;3.75;1.60;;;;;;;16.20;43.88;102155.63;5048719;28;20050;-84
2023/10/05 09:55:53;;;;;;;3.97;1.52;;;;;;;16.22;43.66;102161.91;5045180;28;20053;-85
2023/10/05 09:58:22;;;;;;;3.90;1.30;;;;;;;16.19;43.52;102159.41;5040337;28;20060;-86
2023/10/05 10:00:55;;;;;;;4.13;1.60;;;;;;;16.20;43.79;102167.56;5029689;28;20377;-85
2023/10/05 10:03:24;;;;;;;4.10;1.88;;;;;;;16.22;43.76;102170.19;5030597;28;20053;-86
2023/10/05 10:05:59;;;;;;;3.03;1.60;;;;;;;16.24;43.48;102171.81;5033441;28;20049;-85
2023/10/05 10:08:29;;;;;;;4.10;1.60;;;;;;;16.25;44.09;102167.13;5047757;28;20051;-85
2023/10/05 10:11:03;;;;;;;4.72;1.90;;;;;;;16.26;43.52;102160.59;5046910;28;20068;-86
2023/10/05 10:13:37;;;;;;;2.97;1.30;;;;;;;16.24;43.58;102158.00;5031481;28;20488;-85
2023/10/05 10:16:21;;;;;;;3.40;1.60;;;;;;;16.27;43.57;102156.81;5036412;28;20616;-85
2023/10/05 10:18:52;;;;;;;3.35;1.65;;;;;;;16.27;43.72;102167.88;5025525;28;20045;-86
2023/10/05 10:21:25;;;;;;;5.50;1.67;;;;;;;16.27;43.34;102159.56;5030479;28;20577;-85
2023/10/05 10:24:06;;;;;;;3.45;1.55;;;;;;;16.28;43.50;102161.31;5039519;28;20633;-85
2023/10/05 10:26:40;;;;;;;3.13;1.60;;;;;;;16.28;43.33;102153.03;5036139;28;20061;-86
2023/10/05 10:29:11;;;;;;;3.42;1.45;;;;;;;16.26;43.20;102153.19;5020788;28;20096;-85
2023/10/05 10:32:07;;;;;;;4.07;1.60;;;;;;;16.27;43.32;102143.00;5019784;28;20066;-85
2023/10/05 10:34:49;;;;;;;4.53;1.50;;;;;;;16.29;43.52;102140.09;5029365;28;20068;-86
2023/10/05 10:37:38;;;;;;;4.72;1.60;;;;;;;16.25;43.54;102145.03;5028098;28;20110;-85
2023/10/05 10:40:13;;;;;;;3.72;1.42;;;;;;;16.27;43.39;102143.00;5028479;28;20053;-86
2023/10/05 10:42:50;;;;;;;4.32;1.50;;;;;;;16.31;43.31;102141.72;5030191;28;20053;-85
2023/10/05 10:45:23;;;;;;;4.25;1.55;;;;;;;16.26;43.32;102144.88;5030659;28;20124;-86
2023/10/05 10:47:53;;;;;;;3.17;1.50;;;;;;;16.30;43.80;102150.16;5031508;28;20057;-84
2023/10/05 10:50:29;;;;;;;5.03;1.33;;;;;;;16.32;43.48;102142.59;5030906;28;20132;-84
2023/10/05 10:52:58;;;;;;;3.25;1.58;;;;;;;16.32;43.50;102143.47;5039781;28;20072;-86
2023/10/05 10:55:31;;;;;;;4.15;1.58;;;;;;;16.35;43.12;102145.06;5027749;28;20041;-85
2023/10/05 10:58:08;;;;;;;4.53;1.75;;;;;;;16.35;43.37;102145.06;5046868;28;20045;-85
2023/10/05 11:03:24;;;;;;;2.78;1.33;;;;;;;16.37;43.34;102148.56;5051825;28;20050;-85
2023/10/05 11:05:58;;;;;;;3.95;1.60;;;;;;;16.37;42.98;102145.81;5033761;28;20608;-84
2023/10/05 11:08:32;;;;;;;3.65;1.48;;;;;;;16.37;43.44;102146.69;5034460;28;20056;-85
2023/10/05 11:11:09;;;;;;;4.05;1.63;;;;;;;16.39;43.15;102144.66;5039130;28;20052;-85
2023/10/05 11:14:07;;;;;;;4.43;1.35;;;;;;;16.37;43.34;102138.38;5062201;28;20305;-85
2023/10/05 11:16:43;;;;;;;4.53;1.92;;;;;;;16.38;43.34;102136.50;5047994;28;20580;-86
2023/10/05 11:19:15;;;;;;;4.50;1.63;;;;;;;16.40;43.11;102140.00;5040004;28;20072;-86
2023/10/05 11:22:04;;;;;;;4.03;1.50;;;;;;;16.43;43.24;102135.03;5034201;28;20068;-86
2023/10/05 11:24:37;;;;;;;5.18;1.60;;;;;;;16.44;43.48;102133.16;5044170;28;20056;-85
2023/10/05 11:27:14;;;;;;;5.32;1.77;;;;;;;16.44;43.01;102128.50;5043784;28;20120;-86
2023/10/05 11:29:48;;;;;;;3.72;1.60;;;;;;;16.48;42.98;102118.06;5061218;28;20057;-85
2023/10/05 11:32:28;;;;;;;3.35;1.58;;;;;;;16.49;43.29;102120.69;5046501;28;20053;-87
2023/10/05 11:35:28;;;;;;;3.53;1.50;;;;;;;16.51;43.34;102126.03;5051003;28;20107;-86
2023/10/05 11:38:03;;;;;;;6.65;1.70;;;;;;;16.56;42.76;102118.22;5053944;28;20072;-84
2023/10/05 11:40:41;;;;;;;4.90;1.63;;;;;;;16.60;42.73;102125.19;5050662;28;20049;-84
2023/10/05 11:43:13;;;;;;;6.45;2.15;;;;;;;16.60;43.03;102120.53;5049112;28;20099;-85
2023/10/05 11:57:32;;;;;;;3.90;1.60;;;;;;;16.74;43.40;102094.38;4976495;28;20092;-86
2023/10/05 12:04:08;;;;;;;3.92;1.40;;;;;;;16.93;43.29;102096.25;5016773;28;20060;-86
2023/10/05 12:11:54;;;;;;;2.70;1.23;;;;;;;17.04;43.11;102106.34;5042249;28;20044;-84
2023/10/05 12:14:24;;;;;;;3.63;1.70;;;;;;;17.13;43.27;102102.69;5045113;28;20081;-85
2023/10/05 12:16:56;;;;;;;3.70;1.65;;;;;;;17.21;43.27;102108.34;5054669;28;20433;-84
2023/10/05 12:19:29;;;;;;;4.13;1.60;;;;;;;17.28;42.93;102110.38;5043840;28;20064;-84
2023/10/05 12:21:59;;;;;;;2.97;1.40;;;;;;;17.32;42.79;102109.06;5038253;28;20052;-84
2023/10/05 12:24:27;;;;;;;4.45;1.70;;;;;;;17.37;42.42;102103.97;5062992;28;20071;-87